createdAt,value
2022-11-24T00:00:33.863Z,53.10
2022-11-24T00:05:38.679Z,54.60
2022-11-24T00:10:40.556Z,55.60
2022-11-24T00:15:42.440Z,54.70
2022-11-24T00:20:52.203Z,58.30
2022-11-24T00:25:53.938Z,49.20
2022-11-24T00:30:56.622Z,56.30
2022-11-24T00:36:00.271Z,58.30
2022-11-24T00:41:02.181Z,65.80
2022-11-24T00:46:04.619Z,60.60
2022-11-24T00:51:09.969Z,60.70
2022-11-24T00:56:12.834Z,63.00
2022-11-24T01:01:17.936Z,63.70
2022-11-24T01:06:22.540Z,63.60
2022-11-24T01:12:04.317Z,65.40
2022-11-24T01:17:06.534Z,77.30
2022-11-24T01:22:08.298Z,66.10
2022-11-24T01:27:10.195Z,75.00
2022-11-24T01:32:11.973Z,72.10
2022-11-24T01:37:13.742Z,73.40
2022-11-24T01:42:15.729Z,76.20
2022-11-24T01:47:36.579Z,66.70
2022-11-24T01:52:44.485Z,71.00
2022-11-24T01:57:49.833Z,71.00
2022-11-24T02:02:53.162Z,68.00
2022-11-24T02:07:59.945Z,65.40
2022-11-24T02:13:02.437Z,63.20
2022-11-24T02:18:04.523Z,73.40
2022-11-24T02:23:12.848Z,65.00
2022-11-24T02:28:18.806Z,76.20
2022-11-24T02:33:22.807Z,76.40
2022-11-24T02:38:33.040Z,74.40
2022-11-24T02:43:43.410Z,79.00
2022-11-24T02:48:45.189Z,68.10
2022-11-24T02:53:47.069Z,74.50
2022-11-24T02:58:48.950Z,80.20
2022-11-24T03:03:50.765Z,69.50
2022-11-24T03:08:52.603Z,78.20
2022-11-24T03:13:54.351Z,76.40
2022-11-24T03:18:56.280Z,74.60
2022-11-24T03:23:58.459Z,81.90
2022-11-24T03:29:00.335Z,80.10
2022-11-24T03:34:02.206Z,78.50
2022-11-24T03:39:04.332Z,75.80
2022-11-24T03:44:06.115Z,79.20
2022-11-24T03:49:07.950Z,81.90
2022-11-24T03:54:09.828Z,68.20
2022-11-24T03:59:11.607Z,70.20
2022-11-24T04:04:14.004Z,73.30
2022-11-24T04:09:15.805Z,70.70
2022-11-24T04:14:18.581Z,70.70
2022-11-24T04:19:20.455Z,74.40
2022-11-24T04:24:22.336Z,65.30
2022-11-24T04:29:24.155Z,72.20
2022-11-24T04:34:25.993Z,71.20
2022-11-24T04:39:28.898Z,70.70
2022-11-24T04:44:31.145Z,69.80
2022-11-24T04:49:33.064Z,68.60
2022-11-24T04:54:35.106Z,71.20
2022-11-24T04:59:37.234Z,73.00
2022-11-24T05:04:39.633Z,69.50
2022-11-24T05:10:00.042Z,74.30
2022-11-24T05:15:04.179Z,75.60
2022-11-24T05:20:07.291Z,85.50
2022-11-24T05:25:09.367Z,76.60
2022-11-24T05:30:12.033Z,79.60
2022-11-24T05:35:14.558Z,69.70
2022-11-24T05:40:17.052Z,71.20
2022-11-24T05:45:20.983Z,67.70
2022-11-24T05:50:23.270Z,67.20
2022-11-24T05:55:25.046Z,73.80
2022-11-24T06:00:27.728Z,72.50
2022-11-24T06:05:30.035Z,68.90
2022-11-24T06:10:31.805Z,77.60
2022-11-24T06:15:34.854Z,75.60
2022-11-24T06:20:36.587Z,74.90
2022-11-24T06:35:41.800Z,89.00
2022-11-24T06:40:43.575Z,78.40
2022-11-24T06:45:51.032Z,80.40
2022-11-24T06:50:53.279Z,77.80
2022-11-24T06:55:59.022Z,76.30
2022-11-24T07:01:00.857Z,135.80
2022-11-24T07:06:02.676Z,84.50
2022-11-24T07:11:06.274Z,79.20
2022-11-24T07:16:25.245Z,72.00
2022-11-24T07:21:28.271Z,72.90
2022-11-24T07:26:30.090Z,75.10
2022-11-24T07:31:32.175Z,74.60
2022-11-24T07:36:33.991Z,74.50
2022-11-24T07:41:35.709Z,68.70
2022-11-24T07:46:37.469Z,66.10
2022-11-24T07:51:39.180Z,63.30
2022-11-24T07:56:41.379Z,69.10
2022-11-24T08:01:43.188Z,68.80
2022-11-24T08:06:47.538Z,73.60
2022-11-24T08:11:49.509Z,67.70
2022-11-24T08:16:51.361Z,76.80
2022-11-24T08:21:53.203Z,80.70
2022-11-24T08:26:55.089Z,81.50
2022-11-24T08:31:57.874Z,79.40
2022-11-24T08:36:59.689Z,90.10
2022-11-24T08:42:01.527Z,69.80
2022-11-24T08:47:03.289Z,79.70
2022-11-24T08:52:05.293Z,73.00
2022-11-24T08:57:07.227Z,74.40
2022-11-24T09:02:14.768Z,67.50
2022-11-24T09:07:16.655Z,76.00
2022-11-24T09:12:18.368Z,75.60
2022-11-24T09:22:21.728Z,81.80
2022-11-24T09:27:23.677Z,83.90
2022-11-24T09:32:25.915Z,80.10
2022-11-24T09:37:32.460Z,78.90
2022-11-24T09:42:53.780Z,84.10
2022-11-24T09:48:08.446Z,81.00
2022-11-24T09:53:31.587Z,81.10
2022-11-24T09:58:51.760Z,72.30
2022-11-24T10:03:54.197Z,82.90
2022-11-24T10:09:07.986Z,174.90
2022-11-24T10:14:47.405Z,86.10
2022-11-24T10:20:06.177Z,79.00
2022-11-24T10:26:03.626Z,79.40
2022-11-24T10:31:24.081Z,85.50
2022-11-24T10:37:01.406Z,81.10
2022-11-24T10:42:15.972Z,84.20
2022-11-24T10:47:22.985Z,87.60
2022-11-24T10:52:25.295Z,87.80
2022-11-24T10:57:39.161Z,87.50
2022-11-24T11:02:41.055Z,79.40
2022-11-24T11:07:43.014Z,84.40
2022-11-24T11:12:45.847Z,84.30
2022-11-24T11:17:52.257Z,93.00
2022-11-24T11:22:56.313Z,88.80
2022-11-24T11:28:19.915Z,86.60
2022-11-24T11:38:49.047Z,80.90
2022-11-24T11:44:01.423Z,69.20
2022-11-24T11:49:03.574Z,63.40
2022-11-24T11:54:08.197Z,57.40
2022-11-24T11:59:22.365Z,59.40
2022-11-24T12:04:32.594Z,58.60
2022-11-24T12:09:56.336Z,53.50
2022-11-24T12:15:23.506Z,57.20
2022-11-24T12:20:44.003Z,60.60
2022-11-24T12:25:47.572Z,61.20
2022-11-24T12:31:12.493Z,51.20
2022-11-24T12:36:31.150Z,51.70
2022-11-24T12:41:47.417Z,56.00
2022-11-24T12:46:59.270Z,55.50
2022-11-24T12:52:24.720Z,57.10
2022-11-24T12:57:33.273Z,58.70
2022-11-24T13:03:00.639Z,58.20
2022-11-24T13:08:04.427Z,69.00
2022-11-24T13:13:08.499Z,71.80
2022-11-24T13:18:42.139Z,72.10
2022-11-24T13:24:06.935Z,79.20
2022-11-24T13:29:27.326Z,71.00
2022-11-24T13:34:42.916Z,72.40
2022-11-24T13:39:56.211Z,77.80
2022-11-24T13:44:59.234Z,75.30
2022-11-24T13:50:03.635Z,75.50
2022-11-24T13:55:11.854Z,72.90
2022-11-24T14:00:26.868Z,75.50
2022-11-24T14:05:39.032Z,82.10
2022-11-24T14:10:42.178Z,75.20
2022-11-24T14:15:44.303Z,80.70
2022-11-24T14:20:46.164Z,78.10
2022-11-24T14:25:52.465Z,87.20
2022-11-24T14:31:24.947Z,73.40
2022-11-24T14:36:26.889Z,86.40
2022-11-24T14:41:28.777Z,85.40
2022-11-24T14:46:30.601Z,87.40
2022-11-24T14:51:37.623Z,95.90
2022-11-24T14:56:40.512Z,87.40
2022-11-24T15:01:42.515Z,94.90
2022-11-24T15:06:47.764Z,91.20
2022-11-24T15:11:49.729Z,93.00
2022-11-24T15:16:51.525Z,92.40
2022-11-24T15:21:53.432Z,90.80
2022-11-24T15:27:01.587Z,99.50
2022-11-24T15:32:14.353Z,96.60
2022-11-24T15:37:16.163Z,107.00
2022-11-24T15:42:17.951Z,96.20
2022-11-24T15:47:19.697Z,96.30
2022-11-24T15:52:21.607Z,99.00
2022-11-24T15:57:23.442Z,93.70
2022-11-24T16:02:25.304Z,93.50
2022-11-24T16:07:27.516Z,93.90
2022-11-24T16:12:29.335Z,106.60
2022-11-24T16:17:31.050Z,106.60
2022-11-24T16:27:34.484Z,111.40
2022-11-24T16:32:36.284Z,119.90
2022-11-24T16:37:38.704Z,122.00
2022-11-24T16:42:40.442Z,133.80
2022-11-24T16:47:42.992Z,133.00
2022-11-24T16:52:44.720Z,128.10
2022-11-24T16:57:47.038Z,130.90
2022-11-24T17:02:48.852Z,145.40
2022-11-24T17:07:50.719Z,143.90
2022-11-24T17:12:52.480Z,131.60
2022-11-24T17:18:22.316Z,137.60
